Time;durP1;ratioP1;P1;durP2;ratioP2;P2;SDS_P1;SDS_P2;PMS_P1;PMS_P2;Temp;Humidity;BMP_temperature;BMP_pressure;BME280_temperature;BME280_humidity;BME280_pressure;Samples;Min_cycle;Max_cycle;Signal;HPM_P1;HPM_P2
2021/11/17 02:28:33;;;;;;;13.43;8.35;;;11.90;85.50;;;;;;4992993;28;20057;-80
2021/11/17 02:31:14;;;;;;;15.43;8.95;;;11.90;85.40;;;;;;4990564;28;20041;-78
2021/11/17 02:34:12;;;;;;;12.63;8.15;;;11.90;85.30;;;;;;5008102;28;20021;-78
2021/11/17 02:37:07;;;;;;;13.18;8.57;;;11.90;85.30;;;;;;4989292;28;20034;-78
2021/11/17 02:39:33;;;;;;;13.35;8.10;;;11.90;85.50;;;;;;5007864;28;20033;-78
2021/11/17 02:42:23;;;;;;;14.60;8.30;;;11.90;85.70;;;;;;4992190;28;20029;-79
2021/11/17 02:45:01;;;;;;;11.18;7.05;;;11.90;85.50;;;;;;5015255;28;20034;-79
2021/11/17 02:47:38;;;;;;;11.00;7.10;;;11.90;85.80;;;;;;4992717;28;20089;-79
2021/11/17 02:50:38;;;;;;;12.10;7.03;;;12.00;85.70;;;;;;5017636;28;20448;-79
2021/11/17 02:53:28;;;;;;;11.15;6.28;;;11.90;85.20;;;;;;4937865;29;20065;-79
2021/11/17 02:56:01;;;;;;;11.80;7.43;;;12.00;85.30;;;;;;4918001;29;20044;-78
2021/11/17 02:59:21;;;;;;;12.18;6.80;;;11.90;85.60;;;;;;4932297;29;20040;-78
2021/11/17 03:02:08;;;;;;;10.85;6.90;;;11.90;85.20;;;;;;4899225;29;20032;-80
2021/11/17 03:04:43;;;;;;;9.65;6.32;;;11.90;85.50;;;;;;4864940;29;20087;-79
2021/11/17 03:07:27;;;;;;;11.35;6.88;;;11.90;86.70;;;;;;4892413;29;20049;-80
2021/11/17 03:10:31;;;;;;;9.00;6.40;;;11.90;85.40;;;;;;4899296;29;20535;-79
2021/11/17 03:12:59;;;;;;;10.65;6.82;;;11.90;85.50;;;;;;4899491;29;20458;-79
2021/11/17 03:15:44;;;;;;;12.48;7.35;;;11.90;85.80;;;;;;4899552;29;20071;-79
2021/11/17 03:18:31;;;;;;;9.60;6.55;;;11.90;85.50;;;;;;4883387;29;20478;-78
2021/11/17 03:21:21;;;;;;;8.45;6.07;;;11.90;85.80;;;;;;4883461;29;20087;-79
2021/11/17 03:24:14;;;;;;;10.35;6.53;;;11.90;85.60;;;;;;4868470;29;20072;-79
2021/11/17 03:26:49;;;;;;;9.77;6.43;;;11.90;86.00;;;;;;4884369;29;20120;-79
2021/11/17 03:29:40;;;;;;;12.10;6.78;;;11.90;86.10;;;;;;4909484;28;20026;-79
2021/11/17 03:32:24;;;;;;;9.57;6.40;;;11.90;86.20;;;;;;4980924;28;20050;-79
2021/11/17 03:35:12;;;;;;;10.07;6.60;;;11.90;85.80;;;;;;5013789;28;20398;-79
2021/11/17 03:37:58;;;;;;;10.95;6.22;;;12.00;85.90;;;;;;5013708;28;20065;-78
2021/11/17 03:40:38;;;;;;;10.07;6.05;;;11.90;86.00;;;;;;5013235;28;20034;-78
2021/11/17 03:43:07;;;;;;;8.70;5.93;;;12.00;86.30;;;;;;4996299;28;20509;-79
2021/11/17 03:45:52;;;;;;;10.38;6.40;;;12.00;86.20;;;;;;5013920;28;20494;-78
2021/11/17 03:48:44;;;;;;;10.23;6.72;;;12.00;86.10;;;;;;5014159;28;20025;-81
2021/11/17 03:51:13;;;;;;;10.52;6.35;;;12.00;85.80;;;;;;4995475;28;20034;-79
2021/11/17 03:54:00;;;;;;;8.77;5.55;;;12.00;86.00;;;;;;4996458;28;20037;-80
2021/11/17 03:56:32;;;;;;;7.78;5.07;;;12.00;85.80;;;;;;4993132;28;20055;-80
2021/11/17 03:59:17;;;;;;;10.18;6.53;;;12.00;85.90;;;;;;4995372;28;20042;-81
2021/11/17 04:02:03;;;;;;;8.68;6.00;;;12.00;85.20;;;;;;4995192;28;20494;-80
2021/11/17 04:04:46;;;;;;;8.73;5.78;;;11.90;85.80;;;;;;5007869;28;20042;-80
2021/11/17 04:07:31;;;;;;;9.95;6.05;;;11.90;86.00;;;;;;5010453;28;20066;-80
2021/11/17 04:10:26;;;;;;;9.07;5.68;;;11.90;85.80;;;;;;5010306;28;20100;-80
2021/11/17 04:13:11;;;;;;;8.68;6.00;;;11.90;85.70;;;;;;4992756;28;20314;-78
2021/11/17 04:15:58;;;;;;;8.10;5.28;;;12.00;86.20;;;;;;4978391;28;20037;-79
2021/11/17 04:19:00;;;;;;;8.68;5.75;;;12.00;86.20;;;;;;5009841;28;20022;-80
2021/11/17 04:21:34;;;;;;;8.40;5.88;;;11.90;85.60;;;;;;5010000;28;20398;-78
2021/11/17 04:24:03;;;;;;;9.88;5.78;;;11.90;86.20;;;;;;4995671;28;20026;-78
2021/11/17 04:26:47;;;;;;;8.93;5.75;;;11.90;86.20;;;;;;5013399;28;20536;-80
2021/11/17 04:29:24;;;;;;;9.23;5.68;;;11.90;85.80;;;;;;4992885;28;20106;-79
2021/11/17 04:32:02;;;;;;;8.40;5.82;;;11.90;85.70;;;;;;5009913;28;20034;-79
2021/11/17 04:34:46;;;;;;;8.98;6.35;;;11.90;86.40;;;;;;5009771;28;20466;-78
2021/11/17 04:37:40;;;;;;;6.97;5.03;;;11.90;85.90;;;;;;5010303;28;20037;-78
2021/11/17 04:40:31;;;;;;;9.30;6.18;;;11.90;86.10;;;;;;5010027;28;20045;-79
2021/11/17 04:43:12;;;;;;;8.95;6.13;;;11.90;85.90;;;;;;4972547;28;20185;-78
2021/11/17 04:45:59;;;;;;;9.82;6.32;;;11.90;86.00;;;;;;5000156;28;20025;-79
2021/11/17 04:48:45;;;;;;;10.15;6.30;;;11.90;86.30;;;;;;5009322;28;20433;-79
2021/11/17 04:51:20;;;;;;;8.73;5.63;;;11.80;87.00;;;;;;4984467;28;20018;-79
2021/11/17 04:54:10;;;;;;;10.13;6.43;;;11.80;86.30;;;;;;5009858;28;20475;-79
2021/11/17 04:56:54;;;;;;;8.68;5.45;;;11.70;86.20;;;;;;5009900;28;20030;-79
2021/11/17 04:59:19;;;;;;;9.48;6.13;;;11.70;85.90;;;;;;5012725;28;20034;-80
2021/11/17 05:02:00;;;;;;;7.85;5.50;;;11.70;86.30;;;;;;5011678;28;20086;-80
2021/11/17 05:04:32;;;;;;;8.80;5.72;;;11.60;86.50;;;;;;4976570;28;20111;-79
2021/11/17 05:07:16;;;;;;;8.68;5.45;;;11.60;86.40;;;;;;4992337;28;20091;-79
2021/11/17 05:10:06;;;;;;;8.55;4.88;;;11.50;86.50;;;;;;5009081;28;20029;-79
2021/11/17 05:12:41;;;;;;;8.48;6.03;;;11.50;86.60;;;;;;4983837;28;20025;-79
2021/11/17 05:15:26;;;;;;;7.75;5.30;;;11.50;86.50;;;;;;4992679;28;20030;-79
2021/11/17 05:18:24;;;;;;;7.18;4.95;;;11.50;86.60;;;;;;4962367;28;20022;-79
2021/11/17 05:21:03;;;;;;;8.63;5.20;;;11.50;86.50;;;;;;4911192;29;20532;-78
2021/11/17 05:23:49;;;;;;;7.00;5.00;;;11.50;86.70;;;;;;4913686;29;20028;-79
2021/11/17 05:26:52;;;;;;;7.45;4.82;;;11.40;86.40;;;;;;4909171;29;20532;-79
2021/11/17 05:29:30;;;;;;;9.63;5.47;;;11.40;86.50;;;;;;4913953;29;20040;-78
2021/11/17 05:31:55;;;;;;;6.65;4.63;;;11.40;86.90;;;;;;4913064;29;20044;-79
2021/11/17 05:34:23;;;;;;;7.13;4.40;;;11.40;86.60;;;;;;4913204;29;20074;-79
2021/11/17 05:36:49;;;;;;;8.77;4.85;;;11.40;86.60;;;;;;4912470;29;20036;-78
2021/11/17 05:39:26;;;;;;;7.60;4.97;;;11.40;86.80;;;;;;4897254;29;20122;-79
2021/11/17 05:42:23;;;;;;;7.60;4.72;;;11.40;86.60;;;;;;4913059;29;20027;-80
2021/11/17 05:45:01;;;;;;;7.07;4.95;;;11.40;86.50;;;;;;4912554;29;20042;-79
2021/11/17 05:47:42;;;;;;;7.03;4.57;;;11.40;86.90;;;;;;4894264;29;20144;-79
2021/11/17 05:50:24;;;;;;;7.38;4.72;;;11.40;87.10;;;;;;4912099;29;20036;-80
2021/11/17 05:52:58;;;;;;;6.88;4.78;;;11.40;87.10;;;;;;4897340;29;20052;-80
2021/11/17 05:56:01;;;;;;;6.90;5.13;;;11.40;87.10;;;;;;4912990;29;20028;-79
2021/11/17 05:58:43;;;;;;;6.53;4.70;;;11.40;86.80;;;;;;4975330;28;20042;-78
2021/11/17 06:01:08;;;;;;;6.40;4.72;;;11.40;87.10;;;;;;4992002;28;20026;-80
2021/11/17 06:03:56;;;;;;;8.45;4.35;;;11.40;87.50;;;;;;4973228;28;20533;-78
2021/11/17 06:06:24;;;;;;;5.90;4.10;;;11.40;86.90;;;;;;5001955;28;20049;-79
2021/11/17 06:08:56;;;;;;;6.43;4.57;;;11.50;87.50;;;;;;4991414;28;20073;-79
2021/11/17 06:11:28;;;;;;;8.90;4.70;;;11.50;87.30;;;;;;5012275;28;20026;-79
2021/11/17 06:13:56;;;;;;;7.25;4.57;;;11.60;87.20;;;;;;5010063;28;20120;-78
2021/11/17 06:16:22;;;;;;;6.13;4.07;;;11.50;87.00;;;;;;5008119;28;20138;-77
2021/11/17 06:18:48;;;;;;;7.25;4.28;;;11.50;87.10;;;;;;5006540;28;20451;-79
2021/11/17 06:21:15;;;;;;;6.63;4.57;;;11.40;87.10;;;;;;5007921;28;20026;-79
2021/11/17 06:23:47;;;;;;;7.57;4.80;;;11.40;86.70;;;;;;5010623;28;20064;-80
2021/11/17 06:26:21;;;;;;;8.00;4.30;;;11.40;87.00;;;;;;5011309;28;20469;-79
2021/11/17 06:28:57;;;;;;;7.18;4.57;;;11.40;87.40;;;;;;5008196;28;20103;-79
2021/11/17 06:31:24;;;;;;;5.90;3.97;;;11.40;87.30;;;;;;5007370;28;20041;-80
2021/11/17 06:33:50;;;;;;;6.00;4.22;;;11.40;87.60;;;;;;5009428;28;20018;-79
2021/11/17 06:36:17;;;;;;;5.20;3.83;;;11.50;87.40;;;;;;4992929;28;20085;-79
2021/11/17 06:38:46;;;;;;;6.28;4.45;;;11.50;87.30;;;;;;5009988;28;20034;-78
2021/11/17 06:41:14;;;;;;;6.65;4.60;;;11.50;86.80;;;;;;5009525;28;20494;-79
2021/11/17 06:43:39;;;;;;;6.40;4.55;;;11.50;87.20;;;;;;5007549;28;20041;-80
2021/11/17 06:46:05;;;;;;;6.60;4.35;;;11.40;86.90;;;;;;5007853;28;20030;-79
2021/11/17 06:48:31;;;;;;;7.32;4.50;;;11.40;86.60;;;;;;4990738;28;20022;-79
2021/11/17 06:50:58;;;;;;;6.28;4.68;;;11.40;87.00;;;;;;5007643;28;20491;-79
2021/11/17 06:53:26;;;;;;;6.78;4.13;;;11.40;87.30;;;;;;5007719;28;20405;-79
2021/11/17 06:55:52;;;;;;;6.60;4.22;;;11.40;87.50;;;;;;5008269;28;20033;-79
2021/11/17 06:58:19;;;;;;;8.07;4.38;;;11.40;87.30;;;;;;5007510;28;20052;-79
2021/11/17 07:00:46;;;;;;;6.85;4.65;;;11.40;87.40;;;;;;5010424;28;20500;-80
2021/11/17 07:03:12;;;;;;;7.03;4.38;;;11.40;87.00;;;;;;5007385;28;20406;-79
2021/11/17 07:05:38;;;;;;;6.68;3.95;;;11.40;87.00;;;;;;4991958;28;20510;-78
2021/11/17 07:08:04;;;;;;;6.97;4.47;;;11.50;87.90;;;;;;5009083;28;20045;-79
2021/11/17 07:10:33;;;;;;;5.47;3.58;;;11.50;87.90;;;;;;5007492;28;20026;-81
2021/11/17 07:12:59;;;;;;;8.73;3.97;;;11.60;88.00;;;;;;5006876;28;20034;-79
2021/11/17 07:15:27;;;;;;;6.10;3.80;;;11.60;88.50;;;;;;4989275;28;20052;-79
2021/11/17 07:17:53;;;;;;;6.95;3.60;;;11.70;87.40;;;;;;5004079;28;20093;-78
2021/11/17 07:20:20;;;;;;;5.25;3.75;;;11.70;87.30;;;;;;4993602;28;20549;-79
2021/11/17 07:22:46;;;;;;;5.95;4.00;;;11.70;87.20;;;;;;5006687;28;20129;-78
2021/11/17 07:25:14;;;;;;;5.97;3.70;;;11.70;87.30;;;;;;4990878;28;20556;-78
2021/11/17 07:27:40;;;;;;;4.82;3.67;;;11.70;87.40;;;;;;5006878;28;20026;-78
2021/11/17 07:30:10;;;;;;;6.63;3.25;;;11.60;87.20;;;;;;5001081;28;20046;-79
2021/11/17 07:32:36;;;;;;;5.00;3.20;;;11.70;87.60;;;;;;5013257;28;20026;-69
2021/11/17 07:35:03;;;;;;;5.70;3.42;;;11.70;87.60;;;;;;5011479;28;20018;-73
2021/11/17 07:37:29;;;;;;;7.88;3.58;;;11.80;87.70;;;;;;4993138;28;20025;-73
2021/11/17 07:39:54;;;;;;;5.07;3.03;;;11.80;87.40;;;;;;4993422;28;20482;-73
2021/11/17 07:42:20;;;;;;;4.20;2.83;;;11.90;87.40;;;;;;5010549;28;20017;-73
2021/11/17 07:44:48;;;;;;;5.50;3.72;;;11.90;87.50;;;;;;5011726;28;20026;-73
2021/11/17 07:47:14;;;;;;;4.60;3.17;;;12.00;87.30;;;;;;5013324;28;20026;-69
2021/11/17 07:49:39;;;;;;;4.15;2.83;;;12.00;87.00;;;;;;5010246;28;20037;-70
2021/11/17 07:52:06;;;;;;;4.65;3.10;;;12.00;86.90;;;;;;5011085;28;20034;-69
2021/11/17 07:54:31;;;;;;;4.30;2.80;;;12.00;87.00;;;;;;5010217;28;20108;-70
2021/11/17 07:56:59;;;;;;;5.20;2.80;;;12.00;86.90;;;;;;4992842;28;20104;-70
2021/11/17 07:59:28;;;;;;;4.88;2.80;;;12.00;86.50;;;;;;5010278;28;20045;-70
2021/11/17 08:01:57;;;;;;;3.78;2.80;;;12.00;86.50;;;;;;5015157;28;20451;-70
2021/11/17 08:04:23;;;;;;;5.53;3.22;;;12.00;86.60;;;;;;5010633;28;20049;-70
2021/11/17 08:06:51;;;;;;;6.18;3.47;;;12.00;87.00;;;;;;5009420;28;20022;-70
2021/11/17 08:09:18;;;;;;;4.00;2.70;;;12.00;86.70;;;;;;5010497;28;20030;-70
2021/11/17 08:11:44;;;;;;;4.20;3.10;;;11.90;86.80;;;;;;5012092;28;20026;-70
2021/11/17 08:14:10;;;;;;;5.05;3.08;;;11.90;86.90;;;;;;5010603;28;20038;-70
2021/11/17 08:16:36;;;;;;;5.80;3.58;;;11.90;87.10;;;;;;5008585;28;20474;-70
2021/11/17 08:19:03;;;;;;;5.53;3.35;;;11.90;87.40;;;;;;4991927;28;20045;-69
2021/11/17 08:21:28;;;;;;;6.75;3.60;;;12.00;87.50;;;;;;5010157;28;20025;-70
2021/11/17 08:23:54;;;;;;;4.78;3.25;;;12.00;87.30;;;;;;5010524;28;20045;-69
2021/11/17 08:26:22;;;;;;;4.43;3.30;;;12.00;87.60;;;;;;5012752;28;20028;-71
2021/11/17 08:28:48;;;;;;;5.35;3.55;;;12.00;87.60;;;;;;5009647;28;20037;-68
2021/11/17 08:31:14;;;;;;;7.32;3.67;;;12.00;87.70;;;;;;5010169;28;20076;-70
2021/11/17 08:33:42;;;;;;;5.40;3.55;;;12.00;87.40;;;;;;5009448;28;20083;-69
2021/11/17 08:36:08;;;;;;;4.88;3.40;;;12.00;87.50;;;;;;5009485;28;20026;-69
2021/11/17 08:38:35;;;;;;;5.30;3.60;;;12.00;87.80;;;;;;4997589;28;20513;-68
2021/11/17 08:41:05;;;;;;;4.82;3.22;;;12.00;88.10;;;;;;4980486;28;20034;-69
2021/11/17 08:43:32;;;;;;;4.63;3.28;;;12.00;88.00;;;;;;5006401;28;20465;-67
2021/11/17 08:45:58;;;;;;;4.95;2.90;;;12.10;88.30;;;;;;5005937;28;20069;-69
2021/11/17 08:48:27;;;;;;;6.18;3.47;;;12.10;88.30;;;;;;4990586;28;20034;-69
2021/11/17 08:50:55;;;;;;;4.57;3.20;;;12.10;88.30;;;;;;4990625;28;20034;-69
2021/11/17 08:53:24;;;;;;;3.50;2.55;;;12.10;88.30;;;;;;4999244;28;20028;-69
2021/11/17 08:55:51;;;;;;;5.28;3.08;;;12.20;88.30;;;;;;4989477;28;20549;-69
2021/11/17 08:58:19;;;;;;;4.88;3.20;;;12.30;88.70;;;;;;5011770;28;20030;-68
2021/11/17 09:00:48;;;;;;;4.15;2.80;;;12.30;88.20;;;;;;5010725;28;20039;-69
2021/11/17 09:03:15;;;;;;;4.93;3.35;;;12.30;87.90;;;;;;5009838;28;20450;-68
2021/11/17 09:05:46;;;;;;;5.35;2.85;;;12.30;88.10;;;;;;4993221;28;20522;-68
2021/11/17 09:08:13;;;;;;;5.10;2.75;;;12.30;88.20;;;;;;5014389;28;20359;-68
2021/11/17 09:10:44;;;;;;;5.15;2.95;;;12.30;89.20;;;;;;5009827;28;20029;-68
2021/11/17 09:13:10;;;;;;;4.28;2.75;;;12.60;89.50;;;;;;5011452;28;20022;-67
2021/11/17 09:15:39;;;;;;;7.78;3.38;;;12.70;89.10;;;;;;5008510;28;20029;-69
2021/11/17 09:18:08;;;;;;;4.72;2.95;;;12.90;88.60;;;;;;5008993;28;20018;-69
2021/11/17 09:20:35;;;;;;;5.28;3.03;;;13.00;87.90;;;;;;5012093;28;20529;-69
2021/11/17 09:23:01;;;;;;;6.30;3.30;;;13.10;87.60;;;;;;5010376;28;20030;-69
2021/11/17 09:25:30;;;;;;;6.55;3.22;;;13.10;87.50;;;;;;5009582;28;20036;-69
2021/11/17 09:27:56;;;;;;;5.90;3.65;;;13.10;86.50;;;;;;5009093;28;20034;-68
2021/11/17 09:30:25;;;;;;;5.63;3.33;;;13.10;87.90;;;;;;5009349;28;20022;-69
2021/11/17 09:32:54;;;;;;;4.88;3.28;;;13.10;87.30;;;;;;5010123;28;20554;-68
2021/11/17 09:35:21;;;;;;;6.80;3.63;;;13.10;87.00;;;;;;5012441;28;20076;-68
2021/11/17 09:37:50;;;;;;;6.30;3.10;;;13.00;86.60;;;;;;5008834;28;20022;-69
2021/11/17 09:40:23;;;;;;;4.43;3.20;;;13.00;86.50;;;;;;5010566;28;20033;-70
2021/11/17 09:42:50;;;;;;;4.18;2.78;;;12.90;87.10;;;;;;4993188;28;20022;-69
2021/11/17 09:45:16;;;;;;;4.72;3.22;;;13.00;87.30;;;;;;5012298;28;20483;-69
2021/11/17 09:47:44;;;;;;;5.78;3.50;;;13.00;87.20;;;;;;5007320;28;20033;-68
2021/11/17 09:50:30;;;;;;;4.93;3.28;;;12.90;86.80;;;;;;5006392;28;20022;-68
2021/11/17 09:53:01;;;;;;;5.65;3.40;;;12.90;86.70;;;;;;5010259;28;20030;-69
2021/11/17 09:55:47;;;;;;;5.38;3.10;;;12.80;87.40;;;;;;4992358;28;20398;-68
2021/11/17 09:58:41;;;;;;;4.88;3.28;;;12.90;87.80;;;;;;4993817;28;20474;-68
2021/11/17 10:01:21;;;;;;;6.18;3.20;;;13.10;88.30;;;;;;5011805;28;20037;-69
2021/11/17 10:04:21;;;;;;;4.70;3.17;;;13.30;88.30;;;;;;5008649;28;20033;-68
2021/11/17 10:15:47;;;;;;;4.22;2.60;;;13.80;85.90;;;;;;4930996;29;20539;-69
2021/11/17 10:18:39;;;;;;;3.65;2.63;;;13.70;86.10;;;;;;4931156;29;20066;-69
2021/11/17 10:21:16;;;;;;;3.67;2.53;;;13.60;86.10;;;;;;4916905;29;20504;-69
2021/11/17 10:24:01;;;;;;;5.53;2.78;;;13.60;86.20;;;;;;4931470;29;20040;-69
2021/11/17 10:26:28;;;;;;;3.30;2.55;;;13.60;86.10;;;;;;4931492;29;20031;-69
2021/11/17 10:29:19;;;;;;;3.40;2.67;;;13.60;86.40;;;;;;4931029;29;20039;-69
2021/11/17 10:32:19;;;;;;;4.57;2.75;;;13.50;86.40;;;;;;4914566;29;20040;-69
2021/11/17 10:35:09;;;;;;;5.03;2.90;;;13.50;86.90;;;;;;4930813;29;20091;-69
2021/11/17 10:37:43;;;;;;;3.35;2.38;;;13.60;88.10;;;;;;4931544;29;20103;-68
2021/11/17 10:40:22;;;;;;;3.97;2.85;;;13.90;88.20;;;;;;4931296;29;20067;-68
2021/11/17 10:43:03;;;;;;;3.22;2.67;;;14.10;86.40;;;;;;4931369;29;20062;-69
2021/11/17 10:45:45;;;;;;;3.78;2.35;;;14.20;86.90;;;;;;4931319;29;20046;-69
2021/11/17 10:48:39;;;;;;;3.63;2.55;;;14.30;85.80;;;;;;4918198;29;20039;-69
2021/11/17 10:51:32;;;;;;;4.28;2.42;;;14.20;85.20;;;;;;4974522;28;20034;-69
2021/11/17 10:54:01;;;;;;;3.42;2.25;;;14.10;85.60;;;;;;4974105;28;20518;-69
2021/11/17 10:56:28;;;;;;;5.85;2.50;;;14.10;85.50;;;;;;4985431;28;20061;-69
2021/11/17 10:58:56;;;;;;;3.13;2.20;;;14.10;85.80;;;;;;4972268;28;20047;-69
2021/11/17 11:01:24;;;;;;;3.40;2.38;;;14.10;86.50;;;;;;4972668;28;20165;-69
2021/11/17 11:03:58;;;;;;;3.08;2.40;;;14.20;86.30;;;;;;4974365;28;20567;-69
2021/11/17 11:06:36;;;;;;;4.32;2.35;;;14.30;86.30;;;;;;4973992;28;20053;-72
2021/11/17 11:09:14;;;;;;;4.55;2.50;;;14.40;86.50;;;;;;4986101;28;20046;-76
2021/11/17 11:11:44;;;;;;;3.83;2.90;;;14.50;86.10;;;;;;4977009;28;20058;-72
2021/11/17 11:14:12;;;;;;;4.38;2.35;;;14.60;85.50;;;;;;4985948;28;20124;-72
2021/11/17 11:16:50;;;;;;;3.65;2.55;;;14.90;87.70;;;;;;4998473;28;20053;-72
2021/11/17 11:19:17;;;;;;;3.72;2.50;;;15.30;85.90;;;;;;4997284;28;20046;-72
2021/11/17 11:21:43;;;;;;;2.70;2.20;;;15.20;83.80;;;;;;4992885;28;20074;-72
2021/11/17 11:24:27;;;;;;;3.42;2.10;;;15.00;83.40;;;;;;4992817;28;20037;-72
2021/11/17 11:26:58;;;;;;;3.03;1.70;;;14.90;83.80;;;;;;4979820;28;20115;-72
2021/11/17 11:29:30;;;;;;;1.95;1.35;;;15.10;86.50;;;;;;5011115;28;20040;-74
2021/11/17 11:31:58;;;;;;;2.83;1.83;;;15.40;85.60;;;;;;5012059;28;20030;-72
2021/11/17 11:34:42;;;;;;;3.72;1.63;;;15.50;84.20;;;;;;4977159;28;20548;-72
2021/11/17 11:37:30;;;;;;;1.83;1.05;;;15.50;83.30;;;;;;5005558;28;20026;-72
2021/11/17 11:40:04;;;;;;;1.98;1.55;;;15.30;82.40;;;;;;4930931;29;20203;-73
2021/11/17 11:43:00;;;;;;;3.20;2.00;;;15.10;82.40;;;;;;4934668;29;20040;-72
2021/11/17 11:45:26;;;;;;;3.22;1.90;;;14.90;83.30;;;;;;4934452;29;20047;-71
2021/11/17 11:48:00;;;;;;;3.00;1.50;;;14.80;83.80;;;;;;4915718;29;20031;-71
2021/11/17 11:50:32;;;;;;;4.85;2.30;;;14.70;84.10;;;;;;4930551;29;20040;-72
2021/11/17 11:53:07;;;;;;;3.55;2.22;;;14.70;84.40;;;;;;4933639;29;20039;-72
2021/11/17 11:55:53;;;;;;;4.82;1.70;;;14.60;84.70;;;;;;4934415;29;20028;-71
2021/11/17 11:58:18;;;;;;;2.70;1.70;;;14.60;85.00;;;;;;4931055;29;20048;-71
2021/11/17 12:00:46;;;;;;;3.05;1.80;;;14.50;85.70;;;;;;4927845;29;20114;-73
2021/11/17 12:03:15;;;;;;;3.03;2.00;;;14.60;85.80;;;;;;4933843;29;20552;-72
2021/11/17 12:05:46;;;;;;;2.85;1.70;;;14.60;85.90;;;;;;4934242;29;20068;-73
2021/11/17 12:08:11;;;;;;;2.65;2.20;;;14.60;86.60;;;;;;4933245;29;20034;-73
2021/11/17 12:10:41;;;;;;;2.88;2.20;;;14.80;87.30;;;;;;4924885;29;20048;-71
2021/11/17 12:13:27;;;;;;;3.10;2.20;;;15.30;88.60;;;;;;4927783;29;20508;-67
2021/11/17 12:16:26;;;;;;;3.80;2.08;;;16.00;89.00;;;;;;4933620;28;20120;-69
2021/11/17 12:18:57;;;;;;;3.00;1.88;;;16.90;88.50;;;;;;5002144;28;20026;-69
2021/11/17 12:21:51;;;;;;;2.58;1.95;;;17.50;84.20;;;;;;5010472;28;20050;-68
2021/11/17 12:24:21;;;;;;;4.53;2.08;;;17.80;82.00;;;;;;4992667;28;20034;-68
2021/11/17 12:27:04;;;;;;;3.03;2.00;;;17.80;79.30;;;;;;5011936;28;20046;-68
2021/11/17 12:29:47;;;;;;;2.38;2.08;;;17.70;78.90;;;;;;5010264;28;20025;-68
2021/11/17 12:32:25;;;;;;;2.35;1.77;;;18.10;82.70;;;;;;5012206;28;20029;-68
2021/11/17 12:34:53;;;;;;;4.30;1.73;;;19.00;81.50;;;;;;4993013;28;20025;-67
2021/11/17 12:37:25;;;;;;;7.68;1.70;;;19.20;77.60;;;;;;5017112;28;20029;-69
2021/11/17 12:40:02;;;;;;;2.72;1.55;;;19.10;75.30;;;;;;5022448;28;20388;-68
2021/11/17 12:42:53;;;;;;;2.60;1.23;;;19.00;76.80;;;;;;5013846;28;20017;-69
2021/11/17 12:45:28;;;;;;;1.92;1.10;;;18.60;73.50;;;;;;5022482;28;20042;-73
2021/11/17 12:48:02;;;;;;;1.48;1.10;;;18.50;75.50;;;;;;5013578;28;20026;-75
2021/11/17 12:50:43;;;;;;;1.90;0.98;;;18.00;74.60;;;;;;5003492;28;20029;-70
2021/11/17 12:53:14;;;;;;;2.00;1.23;;;17.90;75.50;;;;;;5016244;28;20569;-70
2021/11/17 12:55:44;;;;;;;2.58;1.00;;;18.20;77.80;;;;;;5016698;28;20112;-69
2021/11/17 12:58:19;;;;;;;2.13;0.90;;;18.20;74.90;;;;;;5019167;28;20038;-70
2021/11/17 13:01:11;;;;;;;2.25;1.15;;;18.20;75.70;;;;;;5015709;28;20045;-69
2021/11/17 13:03:49;;;;;;;2.17;0.73;;;18.60;77.10;;;;;;5003836;28;20036;-69
2021/11/17 13:06:27;;;;;;;3.35;0.80;;;18.30;73.50;;;;;;5013202;28;20046;-69
2021/11/17 13:09:23;;;;;;;5.00;1.50;;;18.90;77.40;;;;;;5004293;28;20038;-69
2021/11/17 13:11:58;;;;;;;1.60;0.60;;;19.00;74.30;;;;;;5012400;28;20034;-70
2021/11/17 13:14:30;;;;;;;2.60;0.90;;;19.30;75.50;;;;;;5002051;28;20029;-70
2021/11/17 13:17:16;;;;;;;1.65;0.70;;;20.10;72.40;;;;;;5014311;28;20080;-70
2021/11/17 13:19:54;;;;;;;4.53;0.88;;;19.40;70.90;;;;;;5015714;28;20037;-70
2021/11/17 13:22:25;;;;;;;1.75;0.75;;;19.30;71.10;;;;;;5017561;28;20030;-70
2021/11/17 13:24:54;;;;;;;1.40;0.73;;;18.80;69.70;;;;;;5012956;28;20084;-69
2021/11/17 13:27:35;;;;;;;3.55;1.23;;;18.50;70.40;;;;;;5023695;28;20034;-69
2021/11/17 13:30:26;;;;;;;3.72;0.90;;;18.20;71.60;;;;;;5001100;28;20038;-69
2021/11/17 13:32:53;;;;;;;2.92;0.82;;;18.00;72.90;;;;;;5021015;28;20030;-70
2021/11/17 13:35:27;;;;;;;2.83;0.80;;;18.10;72.50;;;;;;5018707;28;20030;-69
2021/11/17 13:38:20;;;;;;;2.25;0.70;;;18.10;72.80;;;;;;5018043;28;20032;-69
2021/11/17 13:40:49;;;;;;;4.13;0.70;;;17.80;71.90;;;;;;4998957;28;20041;-70
2021/11/17 13:43:16;;;;;;;1.88;0.50;;;17.40;71.10;;;;;;5015335;28;20375;-69
2021/11/17 13:45:45;;;;;;;1.92;0.50;;;16.90;71.70;;;;;;5021595;28;20083;-69
2021/11/17 13:48:13;;;;;;;1.95;0.50;;;16.50;72.70;;;;;;5012504;28;20073;-69
2021/11/17 13:50:41;;;;;;;3.08;0.70;;;16.30;73.80;;;;;;5023079;28;20105;-69
2021/11/17 13:53:10;;;;;;;1.92;0.60;;;16.10;74.40;;;;;;4997809;28;20084;-69
2021/11/17 13:55:41;;;;;;;2.55;0.47;;;16.00;75.20;;;;;;5015964;28;20025;-70
2021/11/17 13:58:07;;;;;;;4.85;0.50;;;16.00;75.80;;;;;;5018276;28;20117;-69
2021/11/17 14:00:34;;;;;;;2.00;0.40;;;15.90;75.60;;;;;;5014943;28;20051;-69
2021/11/17 14:03:00;;;;;;;1.40;0.32;;;15.80;76.30;;;;;;5020638;28;20124;-70
2021/11/17 14:05:26;;;;;;;5.35;0.80;;;15.80;76.20;;;;;;5019382;28;20219;-69
2021/11/17 14:07:52;;;;;;;2.97;0.80;;;15.80;76.60;;;;;;5018090;28;20025;-69
2021/11/17 14:10:20;;;;;;;4.38;0.70;;;15.90;76.70;;;;;;5017010;28;20064;-69
2021/11/17 14:12:46;;;;;;;3.60;0.80;;;15.90;76.60;;;;;;5011921;28;20053;-69
2021/11/17 14:15:12;;;;;;;3.63;0.70;;;15.90;76.60;;;;;;5021886;28;20368;-69
2021/11/17 14:17:38;;;;;;;3.63;0.88;;;15.90;76.40;;;;;;5016822;28;20057;-69
2021/11/17 14:20:06;;;;;;;2.55;0.68;;;16.00;76.30;;;;;;5018176;28;20522;-69
2021/11/17 14:22:32;;;;;;;3.20;0.70;;;16.00;76.70;;;;;;5015175;28;20132;-70
2021/11/17 14:25:02;;;;;;;2.78;0.63;;;16.00;76.50;;;;;;5012119;28;20163;-70
2021/11/17 14:27:29;;;;;;;3.50;0.73;;;16.00;76.50;;;;;;5000691;28;20079;-70
2021/11/17 14:29:58;;;;;;;3.85;0.82;;;16.00;76.20;;;;;;5000182;28;20513;-70
2021/11/17 14:32:44;;;;;;;2.33;0.57;;;16.00;76.30;;;;;;5023318;28;20032;-69
2021/11/17 14:35:10;;;;;;;2.10;0.60;;;16.00;76.70;;;;;;5015213;28;20030;-70
2021/11/17 14:37:36;;;;;;;5.18;0.85;;;16.00;76.50;;;;;;5014848;28;20026;-70
2021/11/17 14:40:03;;;;;;;3.50;0.90;;;16.10;76.20;;;;;;5018747;28;20410;-70
2021/11/17 14:42:28;;;;;;;2.60;0.65;;;16.10;76.10;;;;;;5011622;28;20022;-69
2021/11/17 14:44:54;;;;;;;2.85;0.60;;;16.00;76.10;;;;;;5020640;28;20036;-69
2021/11/17 14:47:20;;;;;;;3.83;0.80;;;15.90;75.30;;;;;;5000202;28;20029;-69
2021/11/17 14:49:45;;;;;;;5.38;0.95;;;15.80;75.50;;;;;;5015117;28;20032;-69
2021/11/17 14:52:17;;;;;;;2.20;0.57;;;15.70;75.70;;;;;;5017579;28;20038;-69
2021/11/17 14:54:43;;;;;;;3.72;0.60;;;15.60;75.90;;;;;;5011684;28;20026;-69
2021/11/17 14:57:09;;;;;;;4.72;1.00;;;15.50;76.20;;;;;;5002982;28;20027;-69
2021/11/17 14:59:35;;;;;;;3.00;0.93;;;15.40;76.40;;;;;;5016409;28;20037;-70
2021/11/17 15:02:01;;;;;;;3.17;0.70;;;15.30;76.50;;;;;;5015086;28;20025;-73
2021/11/17 15:04:27;;;;;;;4.15;0.98;;;15.30;76.90;;;;;;4996220;28;20029;-73
2021/11/17 15:06:53;;;;;;;4.88;0.82;;;15.40;76.70;;;;;;5019353;28;20018;-76
2021/11/17 15:09:20;;;;;;;5.65;0.90;;;15.30;76.00;;;;;;5021867;28;20036;-76
2021/11/17 15:11:53;;;;;;;5.63;0.80;;;15.20;75.20;;;;;;4995605;28;20472;-75
2021/11/17 15:14:21;;;;;;;2.53;0.90;;;15.20;75.40;;;;;;5021116;28;20084;-73
2021/11/17 15:16:47;;;;;;;3.95;0.88;;;15.10;75.20;;;;;;5012027;28;20030;-81
2021/11/17 15:19:13;;;;;;;4.18;0.93;;;15.10;74.70;;;;;;5011888;28;20044;-74
2021/11/17 15:21:40;;;;;;;7.57;1.20;;;15.00;74.50;;;;;;5021234;28;20464;-73
2021/11/17 15:24:06;;;;;;;6.30;1.05;;;14.90;74.40;;;;;;5010806;28;20030;-73
2021/11/17 15:26:32;;;;;;;3.78;1.20;;;14.80;74.10;;;;;;5003833;28;20108;-73
2021/11/17 15:29:00;;;;;;;5.25;1.02;;;14.80;74.40;;;;;;5011748;28;20168;-73
2021/11/17 15:31:28;;;;;;;5.63;1.20;;;14.80;74.50;;;;;;5014208;28;20026;-73
2021/11/17 15:33:55;;;;;;;4.28;1.00;;;14.70;73.80;;;;;;5018744;28;20112;-74
2021/11/17 15:36:22;;;;;;;6.05;1.20;;;14.70;74.00;;;;;;5010885;28;20018;-73
2021/11/17 15:38:49;;;;;;;3.53;0.88;;;14.60;73.80;;;;;;5020494;28;20052;-73
2021/11/17 15:41:19;;;;;;;4.47;1.02;;;14.50;73.80;;;;;;4994654;28;20046;-73
2021/11/17 15:43:47;;;;;;;7.60;1.63;;;14.50;74.10;;;;;;5017004;28;20021;-73
2021/11/17 15:46:13;;;;;;;7.38;1.50;;;14.50;73.90;;;;;;5016189;28;20438;-73
2021/11/17 15:48:39;;;;;;;5.57;1.40;;;14.40;73.60;;;;;;5010699;28;20041;-73
2021/11/17 15:51:27;;;;;;;5.22;1.13;;;14.40;73.70;;;;;;5021176;28;20034;-73
2021/11/17 15:53:54;;;;;;;6.38;1.08;;;14.30;74.00;;;;;;5014819;28;20037;-73
2021/11/17 15:56:22;;;;;;;4.50;1.33;;;14.30;73.60;;;;;;5028508;28;20072;-73
2021/11/17 15:58:48;;;;;;;8.13;1.60;;;14.30;73.90;;;;;;5016713;28;20402;-73